createdAt,value
2022-12-10T00:00:10.399Z,96399.47
2022-12-10T00:04:19.343Z,96395.00
2022-12-10T00:08:22.598Z,96385.66
2022-12-10T00:12:26.336Z,96387.44
2022-12-10T00:16:34.934Z,96400.00
2022-12-10T00:20:41.136Z,96386.31
2022-12-10T00:24:44.147Z,96388.75
2022-12-10T00:28:49.144Z,96384.41
2022-12-10T00:32:55.123Z,96387.00
2022-12-10T00:37:00.218Z,96389.41
2022-12-10T00:41:04.922Z,96395.34
2022-12-10T00:45:08.927Z,96399.72
2022-12-10T00:49:13.152Z,96396.47
2022-12-10T00:53:18.028Z,96411.09
2022-12-10T00:57:21.533Z,96404.47
2022-12-10T01:01:29.922Z,96408.00
2022-12-10T01:05:33.106Z,96423.59
2022-12-10T01:09:38.602Z,96430.63
2022-12-10T01:13:42.908Z,96425.63
2022-12-10T01:17:46.518Z,96428.06
2022-12-10T01:21:53.475Z,96428.22
2022-12-10T01:26:01.696Z,96417.78
2022-12-10T01:30:07.023Z,96416.03
2022-12-10T01:34:14.413Z,96421.16
2022-12-10T01:38:17.866Z,96426.31
2022-12-10T01:42:22.931Z,96434.72
2022-12-10T01:46:28.079Z,96438.06
2022-12-10T01:50:31.890Z,96437.16
2022-12-10T01:54:38.165Z,96444.03
2022-12-10T01:58:42.841Z,96441.47
2022-12-10T02:02:52.222Z,96443.22
2022-12-10T02:07:00.932Z,96433.59
2022-12-10T02:11:17.929Z,96424.13
2022-12-10T02:15:27.975Z,96421.38
2022-12-10T02:19:49.687Z,96422.06
2022-12-10T02:24:00.493Z,96419.63
2022-12-10T02:28:13.513Z,96424.91
2022-12-10T02:32:22.346Z,96416.09
2022-12-10T02:36:30.086Z,96403.38
2022-12-10T02:40:37.383Z,96404.03
2022-12-10T02:44:44.545Z,96401.63
2022-12-10T02:48:51.990Z,96398.22
2022-12-10T02:52:55.068Z,96399.19
2022-12-10T02:57:03.348Z,96398.06
2022-12-10T03:01:15.094Z,96393.75
2022-12-10T03:05:25.594Z,96386.84
2022-12-10T03:09:39.930Z,96385.88
2022-12-10T03:13:49.991Z,96390.22
2022-12-10T03:17:54.441Z,96406.34
2022-12-10T03:22:01.191Z,96415.66
2022-12-10T03:26:06.739Z,96427.59
2022-12-10T03:30:11.826Z,96427.59
2022-12-10T03:34:16.584Z,96433.53
2022-12-10T03:38:22.060Z,96420.66
2022-12-10T03:42:25.694Z,96424.34
2022-12-10T03:46:36.818Z,96419.72
2022-12-10T03:50:40.376Z,96424.06
2022-12-10T03:54:44.963Z,96416.91
2022-12-10T03:58:48.720Z,96415.50
2022-12-10T04:02:52.326Z,96420.03
2022-12-10T04:06:56.001Z,96425.31
2022-12-10T04:11:06.785Z,96421.09
2022-12-10T04:15:29.275Z,96421.69
2022-12-10T04:19:32.825Z,96414.91
2022-12-10T04:23:54.066Z,96411.69
2022-12-10T04:27:59.707Z,96416.31
2022-12-10T04:32:03.071Z,96418.38
2022-12-10T04:36:07.152Z,96424.47
2022-12-10T04:40:12.004Z,96421.25
2022-12-10T04:44:17.775Z,96414.44
2022-12-10T04:48:21.457Z,96415.41
2022-12-10T04:52:24.508Z,96410.28
2022-12-10T04:56:28.449Z,96414.59
2022-12-10T05:00:33.633Z,96418.81
2022-12-10T05:04:37.379Z,96414.44
2022-12-10T05:08:42.445Z,96410.41
2022-12-10T05:12:45.472Z,96418.00
2022-12-10T05:16:52.702Z,96421.25
2022-12-10T05:20:56.275Z,96423.81
2022-12-10T05:24:59.897Z,96420.56
2022-12-10T05:29:03.060Z,96428.56
2022-12-10T05:33:07.474Z,96427.59
2022-12-10T05:37:11.324Z,96429.38
2022-12-10T05:41:17.207Z,96425.72
2022-12-10T05:45:20.718Z,96428.81
2022-12-10T05:49:25.813Z,96439.63
2022-12-10T05:53:29.476Z,96439.31
2022-12-10T05:57:33.050Z,96443.22
2022-12-10T06:01:37.623Z,96450.66
2022-12-10T06:05:43.230Z,96453.91
2022-12-10T06:09:46.866Z,96455.53
2022-12-10T06:13:55.830Z,96453.75
2022-12-10T06:18:00.113Z,96452.66
2022-12-10T06:22:06.471Z,96449.81
2022-12-10T06:26:11.929Z,96462.53
2022-12-10T06:30:15.799Z,96463.03
2022-12-10T06:34:19.409Z,96455.97
2022-12-10T06:38:24.099Z,96460.03
2022-12-10T06:42:27.744Z,96456.50
2022-12-10T06:46:31.257Z,96458.91
2022-12-10T06:50:34.863Z,96468.13
2022-12-10T06:54:39.312Z,96467.16
2022-12-10T06:58:43.634Z,96455.41
2022-12-10T07:02:47.195Z,96463.91
2022-12-10T07:06:50.742Z,96455.56
2022-12-10T07:10:56.309Z,96441.56
2022-12-10T07:14:59.771Z,96441.56
2022-12-10T07:19:03.939Z,96433.84
2022-12-10T07:23:07.473Z,96446.44
2022-12-10T07:27:14.404Z,96449.69
2022-12-10T07:31:17.586Z,96436.13
2022-12-10T07:35:21.318Z,96442.75
2022-12-10T07:39:24.752Z,96447.59
2022-12-10T07:43:29.655Z,96449.88
2022-12-10T07:47:32.922Z,96439.59
2022-12-10T07:51:36.306Z,96435.25
2022-12-10T07:55:39.783Z,96429.00
2022-12-10T07:59:44.304Z,96438.72
2022-12-10T08:03:51.540Z,96440.84
2022-12-10T08:08:01.117Z,96452.03
2022-12-10T08:12:06.769Z,96455.84
2022-12-10T08:16:14.905Z,96440.44
2022-12-10T08:20:18.138Z,96450.13
2022-12-10T08:24:21.355Z,96445.38
2022-12-10T08:28:24.942Z,96454.41
2022-12-10T08:32:41.468Z,96455.72
2022-12-10T08:36:46.410Z,96472.53
2022-12-10T08:40:50.080Z,96476.19
2022-12-10T08:44:56.518Z,96476.34
2022-12-10T08:49:01.814Z,96474.72
2022-12-10T08:53:05.969Z,96480.84
2022-12-10T08:57:09.760Z,96474.88
2022-12-10T09:01:16.043Z,96479.75
2022-12-10T09:05:20.811Z,96480.91
2022-12-10T09:09:24.003Z,96488.03
2022-12-10T09:13:27.830Z,96486.31
2022-12-10T09:17:31.311Z,96475.28
2022-12-10T09:21:36.375Z,96480.19
2022-12-10T09:25:39.398Z,96490.25
2022-12-10T09:29:42.973Z,96483.19
2022-12-10T09:33:46.840Z,96488.13
2022-12-10T09:37:51.633Z,96486.88
2022-12-10T09:42:10.958Z,96484.97
2022-12-10T09:46:24.799Z,96485.03
2022-12-10T09:50:35.057Z,96477.91
2022-12-10T10:05:30.445Z,96477.50
2022-12-10T10:09:38.597Z,96481.38
2022-12-10T10:13:45.164Z,96485.56
2022-12-10T10:17:51.183Z,96479.78
2022-12-10T10:21:56.441Z,96473.16
2022-12-10T10:26:00.056Z,96467.69
2022-12-10T10:30:06.160Z,96453.50
2022-12-10T10:34:18.066Z,96440.09
2022-12-10T10:38:25.629Z,96437.03
2022-12-10T10:42:38.610Z,96426.88
2022-12-10T10:46:43.545Z,96422.16
2022-12-10T10:50:49.587Z,96414.75
2022-12-10T10:54:54.584Z,96405.69
2022-12-10T10:59:00.473Z,96400.03
2022-12-10T11:03:07.987Z,96408.25
2022-12-10T11:07:23.245Z,96394.84
2022-12-10T11:11:36.265Z,96397.28
2022-12-10T11:15:41.748Z,96388.41
2022-12-10T11:19:46.706Z,96396.00
2022-12-10T11:23:54.160Z,96390.50
2022-12-10T11:28:07.592Z,96395.84
2022-12-10T11:32:23.803Z,96387.63
2022-12-10T11:36:39.017Z,96392.13
2022-12-10T11:40:49.513Z,96396.00
2022-12-10T11:45:02.240Z,96397.94
2022-12-10T11:49:17.572Z,96399.91
2022-12-10T11:53:49.366Z,96394.06
2022-12-10T11:58:06.376Z,96405.38
2022-12-10T12:02:35.498Z,96412.44
2022-12-10T12:06:55.821Z,96416.97
2022-12-10T12:11:21.865Z,96415.31
2022-12-10T12:15:34.497Z,96420.16
2022-12-10T12:19:42.699Z,96413.19
2022-12-10T12:23:56.626Z,96418.50
2022-12-10T12:28:13.117Z,96408.81
2022-12-10T12:32:22.239Z,96412.22
2022-12-10T12:36:30.989Z,96413.97
2022-12-10T12:40:42.499Z,96414.28
2022-12-10T12:44:58.607Z,96416.88
2022-12-10T12:49:13.262Z,96412.38
2022-12-10T12:53:20.823Z,96413.16
2022-12-10T12:57:32.875Z,96416.56
2022-12-10T13:01:41.933Z,96416.56
2022-12-10T13:05:45.740Z,96413.34
2022-12-10T13:09:52.590Z,96411.06
2022-12-10T13:14:21.540Z,96410.41
2022-12-10T13:18:39.007Z,96403.63
2022-12-10T13:22:57.790Z,96412.16
2022-12-10T13:27:18.713Z,96413.97
2022-12-10T13:31:35.345Z,96422.00
2022-12-10T13:35:46.367Z,96417.63
2022-12-10T13:39:56.111Z,96428.13
2022-12-10T13:44:20.880Z,96432.63
2022-12-10T13:48:36.099Z,96432.94
2022-12-10T13:52:55.308Z,96423.09
2022-12-10T13:57:06.884Z,96418.38
2022-12-10T14:01:22.753Z,96426.44
2022-12-10T14:05:41.440Z,96437.88
2022-12-10T14:09:52.998Z,96435.59
2022-12-10T14:14:00.980Z,96437.72
2022-12-10T14:18:13.502Z,96443.16
2022-12-10T14:22:21.887Z,96443.16
2022-12-10T14:26:30.902Z,96455.41
2022-12-10T14:30:34.706Z,96460.06
2022-12-10T14:34:39.841Z,96469.56
2022-12-10T14:38:43.504Z,96467.16
2022-12-10T14:42:47.048Z,96463.91
2022-12-10T14:46:52.378Z,96467.59
2022-12-10T14:51:06.634Z,96472.13
2022-12-10T14:55:16.434Z,96472.41
2022-12-10T14:59:24.533Z,96475.44
2022-12-10T15:03:32.028Z,96474.25
2022-12-10T15:07:38.631Z,96473.88
2022-12-10T15:11:42.706Z,96483.84
2022-12-10T15:15:50.354Z,96480.91
2022-12-10T15:19:54.134Z,96484.75
2022-12-10T15:24:18.422Z,96491.16
2022-12-10T15:28:28.020Z,96496.09
2022-12-10T15:32:31.885Z,96488.94
2022-12-10T15:36:42.142Z,96497.78
2022-12-10T15:40:46.761Z,96496.47
2022-12-10T15:44:50.875Z,96498.84
2022-12-10T15:48:54.622Z,96502.81
2022-12-10T15:52:59.936Z,96499.34
2022-12-10T15:57:13.831Z,96502.06
2022-12-10T16:01:18.727Z,96504.28
2022-12-10T16:05:24.373Z,96491.31
2022-12-10T16:09:27.846Z,96502.44
2022-12-10T16:13:35.459Z,96504.34
2022-12-10T16:17:39.064Z,96504.94
2022-12-10T16:21:44.906Z,96518.59
2022-12-10T16:25:51.556Z,96523.91
2022-12-10T16:29:56.599Z,96525.81
2022-12-10T16:34:01.747Z,96521.78
2022-12-10T16:38:10.460Z,96520.28
2022-12-10T16:42:29.582Z,96521.25
2022-12-10T16:46:34.037Z,96530.72
2022-12-10T16:50:38.135Z,96521.66
2022-12-10T16:54:41.603Z,96534.41
2022-12-10T16:58:45.686Z,96531.97
2022-12-10T17:02:51.322Z,96535.50
2022-12-10T17:06:54.562Z,96537.41
2022-12-10T17:11:25.150Z,96545.13
2022-12-10T17:15:28.736Z,96554.91
2022-12-10T17:19:35.032Z,96559.25
2022-12-10T17:23:38.192Z,96562.09
2022-12-10T17:27:42.035Z,96568.22
2022-12-10T17:31:46.108Z,96564.97
2022-12-10T17:35:53.162Z,96573.50
2022-12-10T17:39:56.387Z,96572.03
2022-12-10T17:44:00.378Z,96568.63
2022-12-10T17:48:03.888Z,96573.91
2022-12-10T17:52:09.142Z,96585.97
2022-12-10T17:56:17.476Z,96575.81
2022-12-10T18:00:23.830Z,96571.34
2022-12-10T18:04:27.049Z,96580.69
2022-12-10T18:08:32.351Z,96580.69
2022-12-10T18:12:37.344Z,96581.66
2022-12-10T18:16:40.466Z,96584.22
2022-12-10T18:20:46.762Z,96593.56
2022-12-10T18:24:55.645Z,96588.41
2022-12-10T18:29:01.310Z,96589.50
2022-12-10T18:33:04.588Z,96594.78
2022-12-10T18:37:09.267Z,96589.66
2022-12-10T18:41:16.853Z,96583.72
2022-12-10T18:45:20.681Z,96590.59
2022-12-10T18:49:25.686Z,96589.66
2022-12-10T18:53:30.095Z,96601.72
2022-12-10T18:57:40.557Z,96604.13
2022-12-10T19:01:47.735Z,96602.38
2022-12-10T19:05:53.480Z,96603.34
2022-12-10T19:09:57.242Z,96608.63
2022-12-10T19:14:04.396Z,96599.94
2022-12-10T19:18:11.150Z,96608.63
2022-12-10T19:22:15.320Z,96599.94
2022-12-10T19:26:27.899Z,96609.28
2022-12-10T19:30:32.860Z,96613.50
2022-12-10T19:34:37.417Z,96598.97
2022-12-10T19:38:40.944Z,96593.84
2022-12-10T19:42:46.427Z,96598.06
2022-12-10T19:46:51.591Z,96604.81
2022-12-10T19:50:55.671Z,96601.41
2022-12-10T19:54:59.392Z,96596.25
2022-12-10T19:59:14.111Z,96603.84
2022-12-10T20:03:21.181Z,96605.50
2022-12-10T20:07:27.256Z,96610.66
2022-12-10T20:11:33.494Z,96614.16
2022-12-10T20:15:39.134Z,96606.41
2022-12-10T20:19:50.422Z,96604.00
2022-12-10T20:23:59.637Z,96616.72
2022-12-10T20:28:08.402Z,96618.63
2022-12-10T20:32:12.526Z,96615.09
2022-12-10T20:36:22.055Z,96608.34
2022-12-10T20:40:32.433Z,96604.00
2022-12-10T20:44:36.330Z,96603.34
2022-12-10T20:48:40.608Z,96602.38
2022-12-10T20:52:45.533Z,96607.66
2022-12-10T20:56:48.715Z,96614.44
2022-12-10T21:00:52.260Z,96616.22
2022-12-10T21:04:56.919Z,96621.34
2022-12-10T21:09:01.388Z,96617.97
2022-12-10T21:13:06.322Z,96625.03
2022-12-10T21:17:10.170Z,96632.75
2022-12-10T21:21:17.856Z,96628.66
2022-12-10T21:25:27.771Z,96629.50
2022-12-10T21:29:33.511Z,96626.91
2022-12-10T21:33:39.856Z,96626.22
2022-12-10T21:37:43.667Z,96627.88
2022-12-10T21:42:06.966Z,96621.09
2022-12-10T21:46:11.439Z,96634.38
2022-12-10T21:50:16.194Z,96632.06
2022-12-10T21:54:19.697Z,96628.66
2022-12-10T21:58:25.353Z,96636.25
2022-12-10T22:02:29.916Z,96632.19
2022-12-10T22:06:40.806Z,96621.22
2022-12-10T22:10:49.889Z,96629.50
2022-12-10T22:14:55.408Z,96630.31
2022-12-10T22:18:58.653Z,96638.81
2022-12-10T22:23:01.726Z,96642.22
2022-12-10T22:27:05.406Z,96640.47
2022-12-10T22:31:10.552Z,96639.50
2022-12-10T22:35:15.071Z,96635.47
2022-12-10T22:39:18.975Z,96636.94
2022-12-10T22:43:51.441Z,96636.94
2022-12-10T22:47:47.153Z,96635.97
2022-12-10T22:51:50.220Z,96634.38
2022-12-10T22:55:59.468Z,96629.22
2022-12-10T23:00:02.788Z,96633.53
2022-12-10T23:04:08.020Z,96629.50
2022-12-10T23:08:11.798Z,96622.72
2022-12-10T23:12:33.026Z,96621.22
2022-12-10T23:16:36.179Z,96626.50
2022-12-10T23:20:49.013Z,96625.84
2022-12-10T23:24:53.883Z,96624.25
2022-12-10T23:28:57.430Z,96631.16
2022-12-10T23:33:03.748Z,96631.16
2022-12-10T23:37:13.256Z,96626.13
2022-12-10T23:41:17.285Z,96627.09
2022-12-10T23:45:23.754Z,96629.66
2022-12-10T23:49:27.407Z,96628.97
2022-12-10T23:53:32.870Z,96634.81
2022-12-10T23:57:37.148Z,96633.16
